sensor_id;sensor_type;location;lat;lon;timestamp;temperature;humidity
75987;DHT22;75291;44.670;37.810;2024-02-15T00:00:24;12.23;61.02
75987;DHT22;75291;44.670;37.810;2024-02-15T00:01:30;12.20;61.10
75987;DHT22;75291;44.670;37.810;2024-02-15T00:02:33;12.20;60.41
75987;DHT22;75291;44.670;37.810;2024-02-15T00:03:37;12.21;60.21
75987;DHT22;75291;44.670;37.810;2024-02-15T00:04:40;12.19;60.04
75987;DHT22;75291;44.670;37.810;2024-02-15T00:05:43;12.18;60.86
75987;DHT22;75291;44.670;37.810;2024-02-15T00:06:49;12.17;60.48
75987;DHT22;75291;44.670;37.810;2024-02-15T00:07:52;12.19;60.10
75987;DHT22;75291;44.670;37.810;2024-02-15T00:08:55;12.21;61.21
75987;DHT22;75291;44.670;37.810;2024-02-15T00:09:58;12.23;60.99
75987;DHT22;75291;44.670;37.810;2024-02-15T00:11:01;12.26;61.27
75987;DHT22;75291;44.670;37.810;2024-02-15T00:12:05;12.27;60.57
75987;DHT22;75291;44.670;37.810;2024-02-15T00:13:10;12.27;59.56
75987;DHT22;75291;44.670;37.810;2024-02-15T00:14:13;12.27;60.82
75987;DHT22;75291;44.670;37.810;2024-02-15T00:15:16;12.27;61.02
75987;DHT22;75291;44.670;37.810;2024-02-15T00:16:20;12.27;61.15
75987;DHT22;75291;44.670;37.810;2024-02-15T00:17:25;12.23;60.48
75987;DHT22;75291;44.670;37.810;2024-02-15T00:18:28;12.18;60.72
75987;DHT22;75291;44.670;37.810;2024-02-15T00:19:31;12.15;60.58
75987;DHT22;75291;44.670;37.810;2024-02-15T00:20:35;12.13;60.22
75987;DHT22;75291;44.670;37.810;2024-02-15T00:21:43;12.13;60.48
75987;DHT22;75291;44.670;37.810;2024-02-15T00:22:46;12.08;60.71
75987;DHT22;75291;44.670;37.810;2024-02-15T00:23:50;12.04;60.76
75987;DHT22;75291;44.670;37.810;2024-02-15T00:24:54;12.04;60.83
75987;DHT22;75291;44.670;37.810;2024-02-15T00:25:57;12.02;61.12
75987;DHT22;75291;44.670;37.810;2024-02-15T00:27:00;11.98;61.18
75987;DHT22;75291;44.670;37.810;2024-02-15T00:28:04;11.98;60.92
75987;DHT22;75291;44.670;37.810;2024-02-15T00:29:08;11.96;60.75
75987;DHT22;75291;44.670;37.810;2024-02-15T00:30:12;11.93;61.34
75987;DHT22;75291;44.670;37.810;2024-02-15T00:31:16;11.94;61.06
75987;DHT22;75291;44.670;37.810;2024-02-15T00:32:19;11.89;61.47
75987;DHT22;75291;44.670;37.810;2024-02-15T00:33:22;11.88;61.74
75987;DHT22;75291;44.670;37.810;2024-02-15T00:34:26;11.85;62.41
75987;DHT22;75291;44.670;37.810;2024-02-15T00:35:29;11.82;62.31
75987;DHT22;75291;44.670;37.810;2024-02-15T00:36:33;11.82;62.37
75987;DHT22;75291;44.670;37.810;2024-02-15T00:37:36;11.82;62.05
75987;DHT22;75291;44.670;37.810;2024-02-15T00:38:39;11.83;62.35
75987;DHT22;75291;44.670;37.810;2024-02-15T00:39:42;11.81;62.23
75987;DHT22;75291;44.670;37.810;2024-02-15T00:40:45;11.75;62.28
75987;DHT22;75291;44.670;37.810;2024-02-15T00:41:49;11.73;62.68
75987;DHT22;75291;44.670;37.810;2024-02-15T00:42:52;11.73;62.67
75987;DHT22;75291;44.670;37.810;2024-02-15T00:43:56;11.74;62.69
75987;DHT22;75291;44.670;37.810;2024-02-15T00:44:59;11.68;62.24
75987;DHT22;75291;44.670;37.810;2024-02-15T00:46:03;11.68;62.10
75987;DHT22;75291;44.670;37.810;2024-02-15T00:47:07;11.70;62.50
75987;DHT22;75291;44.670;37.810;2024-02-15T00:48:10;11.67;62.29
75987;DHT22;75291;44.670;37.810;2024-02-15T00:49:13;11.63;63.00
75987;DHT22;75291;44.670;37.810;2024-02-15T00:50:17;11.64;63.11
75987;DHT22;75291;44.670;37.810;2024-02-15T00:51:20;11.63;62.85
75987;DHT22;75291;44.670;37.810;2024-02-15T00:52:24;11.60;63.34
75987;DHT22;75291;44.670;37.810;2024-02-15T00:53:28;11.58;63.37
75987;DHT22;75291;44.670;37.810;2024-02-15T00:54:31;11.54;63.52
75987;DHT22;75291;44.670;37.810;2024-02-15T00:55:35;11.53;63.41
75987;DHT22;75291;44.670;37.810;2024-02-15T00:56:38;11.56;64.23
75987;DHT22;75291;44.670;37.810;2024-02-15T00:57:41;11.56;63.49
75987;DHT22;75291;44.670;37.810;2024-02-15T00:58:44;11.52;63.57
75987;DHT22;75291;44.670;37.810;2024-02-15T00:59:48;11.51;63.28
75987;DHT22;75291;44.670;37.810;2024-02-15T01:00:51;11.47;63.45
75987;DHT22;75291;44.670;37.810;2024-02-15T01:01:55;11.49;64.05
75987;DHT22;75291;44.670;37.810;2024-02-15T01:02:58;11.49;63.68
75987;DHT22;75291;44.670;37.810;2024-02-15T01:04:02;11.48;64.56
75987;DHT22;75291;44.670;37.810;2024-02-15T01:05:05;11.48;63.89
75987;DHT22;75291;44.670;37.810;2024-02-15T01:06:08;11.45;64.12
75987;DHT22;75291;44.670;37.810;2024-02-15T01:07:11;11.42;64.21
75987;DHT22;75291;44.670;37.810;2024-02-15T01:08:15;11.37;64.22
75987;DHT22;75291;44.670;37.810;2024-02-15T01:09:18;11.36;64.76
75987;DHT22;75291;44.670;37.810;2024-02-15T01:10:21;11.32;64.43
75987;DHT22;75291;44.670;37.810;2024-02-15T01:11:26;11.26;64.42
75987;DHT22;75291;44.670;37.810;2024-02-15T01:12:31;11.25;65.05
75987;DHT22;75291;44.670;37.810;2024-02-15T01:13:34;11.24;65.59
75987;DHT22;75291;44.670;37.810;2024-02-15T01:14:38;11.23;64.82
75987;DHT22;75291;44.670;37.810;2024-02-15T01:15:41;11.19;64.58
75987;DHT22;75291;44.670;37.810;2024-02-15T01:16:44;11.22;64.79
75987;DHT22;75291;44.670;37.810;2024-02-15T01:17:48;11.22;65.04
75987;DHT22;75291;44.670;37.810;2024-02-15T01:18:51;11.19;65.53
75987;DHT22;75291;44.670;37.810;2024-02-15T01:19:54;11.17;65.88
75987;DHT22;75291;44.670;37.810;2024-02-15T01:20:58;11.13;65.10
75987;DHT22;75291;44.670;37.810;2024-02-15T01:22:01;11.12;65.40
75987;DHT22;75291;44.670;37.810;2024-02-15T01:23:06;11.09;65.96
75987;DHT22;75291;44.670;37.810;2024-02-15T01:24:10;11.07;65.72
75987;DHT22;75291;44.670;37.810;2024-02-15T01:25:13;11.07;66.13
75987;DHT22;75291;44.670;37.810;2024-02-15T01:26:18;11.04;65.57
75987;DHT22;75291;44.670;37.810;2024-02-15T01:27:21;11.05;65.03
75987;DHT22;75291;44.670;37.810;2024-02-15T01:28:24;11.09;64.61
75987;DHT22;75291;44.670;37.810;2024-02-15T01:29:28;11.11;65.75
75987;DHT22;75291;44.670;37.810;2024-02-15T01:30:31;11.11;65.83
75987;DHT22;75291;44.670;37.810;2024-02-15T01:31:36;11.10;65.64
75987;DHT22;75291;44.670;37.810;2024-02-15T01:32:41;11.09;65.68
75987;DHT22;75291;44.670;37.810;2024-02-15T01:33:45;11.01;65.85
75987;DHT22;75291;44.670;37.810;2024-02-15T01:34:48;10.99;66.47
75987;DHT22;75291;44.670;37.810;2024-02-15T01:35:54;10.96;66.48
75987;DHT22;75291;44.670;37.810;2024-02-15T01:36:59;10.93;66.05
75987;DHT22;75291;44.670;37.810;2024-02-15T01:38:04;10.94;66.35
75987;DHT22;75291;44.670;37.810;2024-02-15T01:39:07;10.90;66.88
75987;DHT22;75291;44.670;37.810;2024-02-15T01:40:11;10.87;66.59
75987;DHT22;75291;44.670;37.810;2024-02-15T01:41:15;10.84;67.27
75987;DHT22;75291;44.670;37.810;2024-02-15T01:42:19;10.83;66.64
75987;DHT22;75291;44.670;37.810;2024-02-15T01:43:22;10.84;66.36
75987;DHT22;75291;44.670;37.810;2024-02-15T01:44:25;10.86;66.97
75987;DHT22;75291;44.670;37.810;2024-02-15T01:45:29;10.87;67.02
75987;DHT22;75291;44.670;37.810;2024-02-15T01:46:32;10.86;66.75
75987;DHT22;75291;44.670;37.810;2024-02-15T01:47:36;10.83;67.08
75987;DHT22;75291;44.670;37.810;2024-02-15T01:48:40;10.82;67.10
75987;DHT22;75291;44.670;37.810;2024-02-15T01:49:44;10.80;67.75
75987;DHT22;75291;44.670;37.810;2024-02-15T01:50:47;10.78;67.35
75987;DHT22;75291;44.670;37.810;2024-02-15T01:51:52;10.77;67.27
75987;DHT22;75291;44.670;37.810;2024-02-15T01:52:57;10.74;67.95
75987;DHT22;75291;44.670;37.810;2024-02-15T01:54:01;10.73;68.01
75987;DHT22;75291;44.670;37.810;2024-02-15T01:55:05;10.74;67.99
75987;DHT22;75291;44.670;37.810;2024-02-15T01:56:13;10.70;67.53
75987;DHT22;75291;44.670;37.810;2024-02-15T01:57:17;10.67;68.36
75987;DHT22;75291;44.670;37.810;2024-02-15T01:58:21;10.68;67.36
75987;DHT22;75291;44.670;37.810;2024-02-15T01:59:25;10.67;67.88
75987;DHT22;75291;44.670;37.810;2024-02-15T02:00:30;10.66;68.15
75987;DHT22;75291;44.670;37.810;2024-02-15T02:01:34;10.65;68.01
75987;DHT22;75291;44.670;37.810;2024-02-15T02:02:39;10.65;67.56
75987;DHT22;75291;44.670;37.810;2024-02-15T02:03:44;10.68;68.16
75987;DHT22;75291;44.670;37.810;2024-02-15T02:04:48;10.67;67.84
75987;DHT22;75291;44.670;37.810;2024-02-15T02:05:52;10.67;68.36
75987;DHT22;75291;44.670;37.810;2024-02-15T02:06:57;10.64;68.04
75987;DHT22;75291;44.670;37.810;2024-02-15T02:08:01;10.65;68.44
75987;DHT22;75291;44.670;37.810;2024-02-15T02:09:11;10.63;68.60
75987;DHT22;75291;44.670;37.810;2024-02-15T02:10:18;10.60;68.13
75987;DHT22;75291;44.670;37.810;2024-02-15T02:11:23;10.59;68.07
75987;DHT22;75291;44.670;37.810;2024-02-15T02:12:27;10.62;67.72
75987;DHT22;75291;44.670;37.810;2024-02-15T02:13:31;10.62;68.07
75987;DHT22;75291;44.670;37.810;2024-02-15T02:14:34;10.63;68.25
75987;DHT22;75291;44.670;37.810;2024-02-15T02:15:37;10.59;68.28
75987;DHT22;75291;44.670;37.810;2024-02-15T02:16:44;10.60;68.41
75987;DHT22;75291;44.670;37.810;2024-02-15T02:17:49;10.56;68.55
75987;DHT22;75291;44.670;37.810;2024-02-15T02:18:57;10.53;69.05
75987;DHT22;75291;44.670;37.810;2024-02-15T02:20:01;10.52;69.05
75987;DHT22;75291;44.670;37.810;2024-02-15T02:21:11;10.54;69.22
75987;DHT22;75291;44.670;37.810;2024-02-15T02:22:14;10.52;68.70
75987;DHT22;75291;44.670;37.810;2024-02-15T02:23:20;10.49;68.33
75987;DHT22;75291;44.670;37.810;2024-02-15T02:24:26;10.51;68.73
75987;DHT22;75291;44.670;37.810;2024-02-15T02:25:30;10.50;69.27
75987;DHT22;75291;44.670;37.810;2024-02-15T02:26:34;10.52;69.60
75987;DHT22;75291;44.670;37.810;2024-02-15T02:27:37;10.49;68.96
75987;DHT22;75291;44.670;37.810;2024-02-15T02:28:41;10.49;68.91
75987;DHT22;75291;44.670;37.810;2024-02-15T02:29:45;10.50;69.51
75987;DHT22;75291;44.670;37.810;2024-02-15T02:30:49;10.49;69.59
75987;DHT22;75291;44.670;37.810;2024-02-15T02:31:52;10.46;69.89
75987;DHT22;75291;44.670;37.810;2024-02-15T02:32:56;10.46;69.90
75987;DHT22;75291;44.670;37.810;2024-02-15T02:34:03;10.45;69.80
75987;DHT22;75291;44.670;37.810;2024-02-15T02:35:06;10.41;69.79
75987;DHT22;75291;44.670;37.810;2024-02-15T02:36:10;10.38;69.87
75987;DHT22;75291;44.670;37.810;2024-02-15T02:37:14;10.36;69.98
75987;DHT22;75291;44.670;37.810;2024-02-15T02:38:18;10.34;69.81
75987;DHT22;75291;44.670;37.810;2024-02-15T02:39:22;10.31;70.19
75987;DHT22;75291;44.670;37.810;2024-02-15T02:40:25;10.29;70.01
75987;DHT22;75291;44.670;37.810;2024-02-15T02:41:29;10.27;70.26
75987;DHT22;75291;44.670;37.810;2024-02-15T02:42:32;10.28;71.21
75987;DHT22;75291;44.670;37.810;2024-02-15T02:43:36;10.26;70.66
75987;DHT22;75291;44.670;37.810;2024-02-15T02:44:40;10.25;70.46
75987;DHT22;75291;44.670;37.810;2024-02-15T02:45:43;10.23;70.58
75987;DHT22;75291;44.670;37.810;2024-02-15T02:46:48;10.24;70.96
75987;DHT22;75291;44.670;37.810;2024-02-15T02:47:52;10.24;71.10
75987;DHT22;75291;44.670;37.810;2024-02-15T02:48:56;10.20;71.23
75987;DHT22;75291;44.670;37.810;2024-02-15T02:50:00;10.15;71.10
75987;DHT22;75291;44.670;37.810;2024-02-15T02:51:04;10.11;71.19
75987;DHT22;75291;44.670;37.810;2024-02-15T02:52:07;10.07;71.42
75987;DHT22;75291;44.670;37.810;2024-02-15T02:53:11;10.04;71.58
75987;DHT22;75291;44.670;37.810;2024-02-15T02:54:16;10.01;71.60
75987;DHT22;75291;44.670;37.810;2024-02-15T02:55:22;9.96;71.94
75987;DHT22;75291;44.670;37.810;2024-02-15T02:56:25;9.92;72.16
75987;DHT22;75291;44.670;37.810;2024-02-15T02:57:28;9.85;72.58
75987;DHT22;75291;44.670;37.810;2024-02-15T02:58:32;9.84;72.52
75987;DHT22;75291;44.670;37.810;2024-02-15T02:59:35;9.85;72.16
75987;DHT22;75291;44.670;37.810;2024-02-15T03:00:41;9.89;72.17
75987;DHT22;75291;44.670;37.810;2024-02-15T03:01:48;9.92;71.86
75987;DHT22;75291;44.670;37.810;2024-02-15T03:02:51;9.91;72.11
75987;DHT22;75291;44.670;37.810;2024-02-15T03:03:56;9.90;71.96
75987;DHT22;75291;44.670;37.810;2024-02-15T03:04:59;9.89;72.08
75987;DHT22;75291;44.670;37.810;2024-02-15T03:06:07;9.86;72.14
75987;DHT22;75291;44.670;37.810;2024-02-15T03:07:11;9.85;72.62
75987;DHT22;75291;44.670;37.810;2024-02-15T03:08:19;9.89;72.57
75987;DHT22;75291;44.670;37.810;2024-02-15T03:09:23;9.90;72.58
75987;DHT22;75291;44.670;37.810;2024-02-15T03:10:26;9.89;72.41
75987;DHT22;75291;44.670;37.810;2024-02-15T03:11:30;9.88;72.12
75987;DHT22;75291;44.670;37.810;2024-02-15T03:12:33;9.86;72.59
75987;DHT22;75291;44.670;37.810;2024-02-15T03:13:38;9.81;72.58
75987;DHT22;75291;44.670;37.810;2024-02-15T03:14:41;9.79;72.80
75987;DHT22;75291;44.670;37.810;2024-02-15T03:15:45;9.75;72.70
75987;DHT22;75291;44.670;37.810;2024-02-15T03:16:51;9.72;72.81
75987;DHT22;75291;44.670;37.810;2024-02-15T03:17:54;9.70;72.98
75987;DHT22;75291;44.670;37.810;2024-02-15T03:18:58;9.69;73.30
75987;DHT22;75291;44.670;37.810;2024-02-15T03:20:01;9.69;73.20
75987;DHT22;75291;44.670;37.810;2024-02-15T03:21:05;9.70;72.83
75987;DHT22;75291;44.670;37.810;2024-02-15T03:22:08;9.75;73.21
75987;DHT22;75291;44.670;37.810;2024-02-15T03:23:11;9.75;72.71
75987;DHT22;75291;44.670;37.810;2024-02-15T03:24:14;9.75;72.64
75987;DHT22;75291;44.670;37.810;2024-02-15T03:25:18;9.76;73.10
75987;DHT22;75291;44.670;37.810;2024-02-15T03:26:31;9.76;72.74
75987;DHT22;75291;44.670;37.810;2024-02-15T03:27:40;9.72;72.74
75987;DHT22;75291;44.670;37.810;2024-02-15T03:28:44;9.72;72.67
75987;DHT22;75291;44.670;37.810;2024-02-15T03:29:47;9.69;72.53
75987;DHT22;75291;44.670;37.810;2024-02-15T03:30:51;9.65;72.52
75987;DHT22;75291;44.670;37.810;2024-02-15T03:31:55;9.65;72.45
75987;DHT22;75291;44.670;37.810;2024-02-15T03:32:59;9.63;72.70
75987;DHT22;75291;44.670;37.810;2024-02-15T03:34:04;9.64;72.83
75987;DHT22;75291;44.670;37.810;2024-02-15T03:35:07;9.64;72.73
75987;DHT22;75291;44.670;37.810;2024-02-15T03:36:11;9.67;73.02
75987;DHT22;75291;44.670;37.810;2024-02-15T03:37:14;9.67;73.06
75987;DHT22;75291;44.670;37.810;2024-02-15T03:38:17;9.65;72.63
75987;DHT22;75291;44.670;37.810;2024-02-15T03:39:20;9.63;72.57
75987;DHT22;75291;44.670;37.810;2024-02-15T03:40:26;9.57;72.72
75987;DHT22;75291;44.670;37.810;2024-02-15T03:41:30;9.56;73.13
75987;DHT22;75291;44.670;37.810;2024-02-15T03:42:35;9.57;72.76
75987;DHT22;75291;44.670;37.810;2024-02-15T03:43:41;9.56;73.03
75987;DHT22;75291;44.670;37.810;2024-02-15T03:44:45;9.55;73.58
75987;DHT22;75291;44.670;37.810;2024-02-15T03:45:50;9.54;73.26
75987;DHT22;75291;44.670;37.810;2024-02-15T03:46:54;9.51;73.64
75987;DHT22;75291;44.670;37.810;2024-02-15T03:47:59;9.53;73.51
75987;DHT22;75291;44.670;37.810;2024-02-15T03:49:02;9.49;73.29
75987;DHT22;75291;44.670;37.810;2024-02-15T03:50:07;9.49;73.06
75987;DHT22;75291;44.670;37.810;2024-02-15T03:51:17;9.52;73.70
75987;DHT22;75291;44.670;37.810;2024-02-15T03:52:23;9.55;73.25
75987;DHT22;75291;44.670;37.810;2024-02-15T03:53:26;9.56;73.03
75987;DHT22;75291;44.670;37.810;2024-02-15T03:54:33;9.56;73.53
75987;DHT22;75291;44.670;37.810;2024-02-15T03:55:36;9.57;73.54
75987;DHT22;75291;44.670;37.810;2024-02-15T03:56:51;9.59;73.32
75987;DHT22;75291;44.670;37.810;2024-02-15T03:57:55;9.61;73.28
75987;DHT22;75291;44.670;37.810;2024-02-15T03:59:00;9.62;73.41
75987;DHT22;75291;44.670;37.810;2024-02-15T04:00:08;9.64;73.13
75987;DHT22;75291;44.670;37.810;2024-02-15T04:01:13;9.66;73.20
75987;DHT22;75291;44.670;37.810;2024-02-15T04:02:21;9.63;72.90
75987;DHT22;75291;44.670;37.810;2024-02-15T04:03:26;9.60;72.87
75987;DHT22;75291;44.670;37.810;2024-02-15T04:04:29;9.57;72.70
75987;DHT22;75291;44.670;37.810;2024-02-15T04:05:33;9.55;73.03
75987;DHT22;75291;44.670;37.810;2024-02-15T04:06:37;9.55;73.67
75987;DHT22;75291;44.670;37.810;2024-02-15T04:07:44;9.56;73.11
75987;DHT22;75291;44.670;37.810;2024-02-15T04:08:48;9.55;72.52
75987;DHT22;75291;44.670;37.810;2024-02-15T04:09:53;9.57;72.64
75987;DHT22;75291;44.670;37.810;2024-02-15T04:10:56;9.61;73.17
75987;DHT22;75291;44.670;37.810;2024-02-15T04:12:01;9.56;73.52
75987;DHT22;75291;44.670;37.810;2024-02-15T04:13:04;9.57;73.58
75987;DHT22;75291;44.670;37.810;2024-02-15T04:14:07;9.53;73.48
75987;DHT22;75291;44.670;37.810;2024-02-15T04:15:11;9.49;73.73
75987;DHT22;75291;44.670;37.810;2024-02-15T04:16:14;9.44;74.09
75987;DHT22;75291;44.670;37.810;2024-02-15T04:17:20;9.45;74.57
75987;DHT22;75291;44.670;37.810;2024-02-15T04:18:24;9.45;74.71
75987;DHT22;75291;44.670;37.810;2024-02-15T04:19:28;9.47;74.47
75987;DHT22;75291;44.670;37.810;2024-02-15T04:20:31;9.45;74.74
75987;DHT22;75291;44.670;37.810;2024-02-15T04:21:35;9.47;74.70
75987;DHT22;75291;44.670;37.810;2024-02-15T04:22:38;9.47;74.31
75987;DHT22;75291;44.670;37.810;2024-02-15T04:23:41;9.47;74.27
75987;DHT22;75291;44.670;37.810;2024-02-15T04:24:46;9.45;73.81
75987;DHT22;75291;44.670;37.810;2024-02-15T04:25:49;9.48;74.97
75987;DHT22;75291;44.670;37.810;2024-02-15T04:26:55;9.48;74.35
75987;DHT22;75291;44.670;37.810;2024-02-15T04:27:58;9.48;74.40
75987;DHT22;75291;44.670;37.810;2024-02-15T04:29:06;9.45;74.40
75987;DHT22;75291;44.670;37.810;2024-02-15T04:30:12;9.40;74.20
75987;DHT22;75291;44.670;37.810;2024-02-15T04:31:16;9.37;74.45
75987;DHT22;75291;44.670;37.810;2024-02-15T04:32:19;9.37;75.05
75987;DHT22;75291;44.670;37.810;2024-02-15T04:33:22;9.38;74.98
75987;DHT22;75291;44.670;37.810;2024-02-15T04:34:25;9.44;75.15
75987;DHT22;75291;44.670;37.810;2024-02-15T04:35:29;9.47;74.70
75987;DHT22;75291;44.670;37.810;2024-02-15T04:36:33;9.46;74.82
75987;DHT22;75291;44.670;37.810;2024-02-15T04:37:37;9.45;74.93
75987;DHT22;75291;44.670;37.810;2024-02-15T04:38:41;9.44;74.53
75987;DHT22;75291;44.670;37.810;2024-02-15T04:39:44;9.44;74.36
75987;DHT22;75291;44.670;37.810;2024-02-15T04:40:49;9.44;74.91
75987;DHT22;75291;44.670;37.810;2024-02-15T04:41:52;9.41;74.37
75987;DHT22;75291;44.670;37.810;2024-02-15T04:42:56;9.42;74.34
75987;DHT22;75291;44.670;37.810;2024-02-15T04:44:01;9.48;74.43
75987;DHT22;75291;44.670;37.810;2024-02-15T04:45:06;9.51;75.03
75987;DHT22;75291;44.670;37.810;2024-02-15T04:46:25;9.53;74.57
75987;DHT22;75291;44.670;37.810;2024-02-15T04:47:28;9.51;74.54
75987;DHT22;75291;44.670;37.810;2024-02-15T04:48:33;9.52;74.97
75987;DHT22;75291;44.670;37.810;2024-02-15T04:49:37;9.50;74.96
75987;DHT22;75291;44.670;37.810;2024-02-15T04:50:41;9.47;74.88
75987;DHT22;75291;44.670;37.810;2024-02-15T04:51:46;9.49;74.39
75987;DHT22;75291;44.670;37.810;2024-02-15T04:52:50;9.52;75.02
75987;DHT22;75291;44.670;37.810;2024-02-15T04:53:53;9.55;74.31
75987;DHT22;75291;44.670;37.810;2024-02-15T04:54:56;9.55;74.47
75987;DHT22;75291;44.670;37.810;2024-02-15T04:56:01;9.53;74.20
75987;DHT22;75291;44.670;37.810;2024-02-15T04:57:09;9.50;74.28
75987;DHT22;75291;44.670;37.810;2024-02-15T04:58:14;9.47;74.32
75987;DHT22;75291;44.670;37.810;2024-02-15T04:59:18;9.41;74.63
75987;DHT22;75291;44.670;37.810;2024-02-15T05:00:23;9.44;75.14
75987;DHT22;75291;44.670;37.810;2024-02-15T05:01:28;9.45;75.02
75987;DHT22;75291;44.670;37.810;2024-02-15T05:02:37;9.41;74.63
75987;DHT22;75291;44.670;37.810;2024-02-15T05:03:44;9.40;74.52
75987;DHT22;75291;44.670;37.810;2024-02-15T05:04:47;9.39;74.76
75987;DHT22;75291;44.670;37.810;2024-02-15T05:05:51;9.37;74.46
75987;DHT22;75291;44.670;37.810;2024-02-15T05:06:54;9.31;74.31
75987;DHT22;75291;44.670;37.810;2024-02-15T05:07:59;9.30;75.30
75987;DHT22;75291;44.670;37.810;2024-02-15T05:09:04;9.30;75.22
75987;DHT22;75291;44.670;37.810;2024-02-15T05:10:15;9.30;74.81
75987;DHT22;75291;44.670;37.810;2024-02-15T05:11:19;9.29;74.93
75987;DHT22;75291;44.670;37.810;2024-02-15T05:12:23;9.26;74.67
75987;DHT22;75291;44.670;37.810;2024-02-15T05:13:30;9.26;75.54
75987;DHT22;75291;44.670;37.810;2024-02-15T05:14:33;9.23;74.51
75987;DHT22;75291;44.670;37.810;2024-02-15T05:15:40;9.22;75.00
75987;DHT22;75291;44.670;37.810;2024-02-15T05:16:43;9.19;75.12
75987;DHT22;75291;44.670;37.810;2024-02-15T05:17:47;9.20;75.21
75987;DHT22;75291;44.670;37.810;2024-02-15T05:18:51;9.20;74.31
75987;DHT22;75291;44.670;37.810;2024-02-15T05:19:54;9.23;74.01
75987;DHT22;75291;44.670;37.810;2024-02-15T05:21:02;9.25;74.01
75987;DHT22;75291;44.670;37.810;2024-02-15T05:22:06;9.27;74.19
75987;DHT22;75291;44.670;37.810;2024-02-15T05:23:09;9.31;73.67
75987;DHT22;75291;44.670;37.810;2024-02-15T05:24:16;9.26;73.16
75987;DHT22;75291;44.670;37.810;2024-02-15T05:25:20;9.24;73.80
75987;DHT22;75291;44.670;37.810;2024-02-15T05:26:26;9.26;73.94
75987;DHT22;75291;44.670;37.810;2024-02-15T05:27:29;9.26;74.00
75987;DHT22;75291;44.670;37.810;2024-02-15T05:28:32;9.24;74.03
75987;DHT22;75291;44.670;37.810;2024-02-15T05:29:36;9.22;73.51
75987;DHT22;75291;44.670;37.810;2024-02-15T05:30:40;9.21;73.64
75987;DHT22;75291;44.670;37.810;2024-02-15T05:31:43;9.16;73.54
75987;DHT22;75291;44.670;37.810;2024-02-15T05:32:47;9.12;73.71
75987;DHT22;75291;44.670;37.810;2024-02-15T05:33:53;9.16;73.70
75987;DHT22;75291;44.670;37.810;2024-02-15T05:34:57;9.11;74.35
75987;DHT22;75291;44.670;37.810;2024-02-15T05:36:00;9.11;74.46
75987;DHT22;75291;44.670;37.810;2024-02-15T05:37:03;9.10;74.80
75987;DHT22;75291;44.670;37.810;2024-02-15T05:38:06;9.14;74.94
75987;DHT22;75291;44.670;37.810;2024-02-15T05:39:10;9.12;74.91
75987;DHT22;75291;44.670;37.810;2024-02-15T05:40:14;9.16;74.72
75987;DHT22;75291;44.670;37.810;2024-02-15T05:41:19;9.20;74.55
75987;DHT22;75291;44.670;37.810;2024-02-15T05:42:23;9.19;73.80
75987;DHT22;75291;44.670;37.810;2024-02-15T05:43:27;9.16;73.55
75987;DHT22;75291;44.670;37.810;2024-02-15T05:44:30;9.15;73.83
75987;DHT22;75291;44.670;37.810;2024-02-15T05:45:33;9.15;73.23
75987;DHT22;75291;44.670;37.810;2024-02-15T05:46:37;9.15;73.86
75987;DHT22;75291;44.670;37.810;2024-02-15T05:47:42;9.15;73.73
75987;DHT22;75291;44.670;37.810;2024-02-15T05:48:46;9.09;74.33
75987;DHT22;75291;44.670;37.810;2024-02-15T05:49:49;9.11;75.25
75987;DHT22;75291;44.670;37.810;2024-02-15T05:50:54;9.12;74.92
75987;DHT22;75291;44.670;37.810;2024-02-15T05:51:57;9.15;75.11
75987;DHT22;75291;44.670;37.810;2024-02-15T05:53:00;9.15;74.51
75987;DHT22;75291;44.670;37.810;2024-02-15T05:54:04;9.16;74.96
75987;DHT22;75291;44.670;37.810;2024-02-15T05:55:07;9.15;74.59
75987;DHT22;75291;44.670;37.810;2024-02-15T05:56:11;9.11;74.00
75987;DHT22;75291;44.670;37.810;2024-02-15T05:57:15;9.12;74.26
75987;DHT22;75291;44.670;37.810;2024-02-15T05:58:32;9.09;74.38
75987;DHT22;75291;44.670;37.810;2024-02-15T05:59:36;9.10;74.40
75987;DHT22;75291;44.670;37.810;2024-02-15T06:00:39;9.05;74.74
75987;DHT22;75291;44.670;37.810;2024-02-15T06:01:44;9.04;74.51
75987;DHT22;75291;44.670;37.810;2024-02-15T06:02:48;9.01;74.67
75987;DHT22;75291;44.670;37.810;2024-02-15T06:03:52;9.01;75.21
75987;DHT22;75291;44.670;37.810;2024-02-15T06:04:58;8.97;74.95
75987;DHT22;75291;44.670;37.810;2024-02-15T06:06:05;8.96;75.04
75987;DHT22;75291;44.670;37.810;2024-02-15T06:07:11;8.94;75.39
75987;DHT22;75291;44.670;37.810;2024-02-15T06:08:15;8.94;74.38
75987;DHT22;75291;44.670;37.810;2024-02-15T06:09:18;9.01;74.74
75987;DHT22;75291;44.670;37.810;2024-02-15T06:10:25;9.06;74.51
75987;DHT22;75291;44.670;37.810;2024-02-15T06:11:28;9.12;75.02
75987;DHT22;75291;44.670;37.810;2024-02-15T06:12:31;9.16;74.72
75987;DHT22;75291;44.670;37.810;2024-02-15T06:13:35;9.17;74.45
75987;DHT22;75291;44.670;37.810;2024-02-15T06:14:38;9.18;73.50
75987;DHT22;75291;44.670;37.810;2024-02-15T06:15:41;9.17;72.56
75987;DHT22;75291;44.670;37.810;2024-02-15T06:16:44;9.12;73.38
75987;DHT22;75291;44.670;37.810;2024-02-15T06:17:47;9.15;73.15
75987;DHT22;75291;44.670;37.810;2024-02-15T06:18:52;9.17;72.80
75987;DHT22;75291;44.670;37.810;2024-02-15T06:19:55;9.16;73.35
75987;DHT22;75291;44.670;37.810;2024-02-15T06:20:59;9.19;72.07
75987;DHT22;75291;44.670;37.810;2024-02-15T06:22:03;9.31;71.56
75987;DHT22;75291;44.670;37.810;2024-02-15T06:23:07;9.35;70.79
75987;DHT22;75291;44.670;37.810;2024-02-15T06:24:10;9.34;70.01
75987;DHT22;75291;44.670;37.810;2024-02-15T06:25:14;9.34;70.96
75987;DHT22;75291;44.670;37.810;2024-02-15T06:26:18;9.23;71.79
75987;DHT22;75291;44.670;37.810;2024-02-15T06:27:22;9.17;71.78
75987;DHT22;75291;44.670;37.810;2024-02-15T06:28:27;9.06;72.48
75987;DHT22;75291;44.670;37.810;2024-02-15T06:29:49;9.03;71.39
75987;DHT22;75291;44.670;37.810;2024-02-15T06:31:11;9.08;72.19
75987;DHT22;75291;44.670;37.810;2024-02-15T06:32:33;9.12;71.14
75987;DHT22;75291;44.670;37.810;2024-02-15T06:33:55;9.19;71.86
75987;DHT22;75291;44.670;37.810;2024-02-15T06:35:17;9.22;70.23
75987;DHT22;75291;44.670;37.810;2024-02-15T06:36:49;9.30;69.23
75987;DHT22;75291;44.670;37.810;2024-02-15T06:38:11;9.34;70.75
75987;DHT22;75291;44.670;37.810;2024-02-15T06:39:33;9.37;70.20
75987;DHT22;75291;44.670;37.810;2024-02-15T06:40:47;9.45;69.65
75987;DHT22;75291;44.670;37.810;2024-02-15T06:41:51;9.46;69.74
75987;DHT22;75291;44.670;37.810;2024-02-15T06:42:55;9.44;68.74
75987;DHT22;75291;44.670;37.810;2024-02-15T06:43:59;9.42;68.84
75987;DHT22;75291;44.670;37.810;2024-02-15T06:45:03;9.33;70.08
75987;DHT22;75291;44.670;37.810;2024-02-15T06:46:07;9.24;71.19